Time;durP1;ratioP1;P1;durP2;ratioP2;P2;SDS_P1;SDS_P2;PMS_P1;PMS_P2;Temp;Humidity;BMP_temperature;BMP_pressure;BME280_temperature;BME280_humidity;BME280_pressure;Samples;Min_cycle;Max_cycle;Signal;HPM_P1;HPM_P2
2022/11/24 00:00:32;;;;;;;20.37;5.57;;;;;;;7.44;100.00;100138.47;5010388;28;20060;-86
2022/11/24 00:02:59;;;;;;;19.30;5.63;;;;;;;7.54;100.00;100149.63;5011193;28;20029;-87
2022/11/24 00:05:24;;;;;;;20.83;5.60;;;;;;;7.52;100.00;100145.50;5012305;28;20042;-87
2022/11/24 00:07:50;;;;;;;22.17;6.13;;;;;;;7.45;100.00;100145.50;5013762;28;20034;-87
2022/11/24 00:10:15;;;;;;;20.73;5.07;;;;;;;7.52;100.00;100154.44;5010183;28;20647;-86
2022/11/24 00:12:40;;;;;;;22.40;5.93;;;;;;;7.43;100.00;100147.59;5012237;28;20042;-85
2022/11/24 00:15:06;;;;;;;21.40;5.70;;;;;;;7.51;100.00;100157.34;5011914;28;20132;-87
2022/11/24 00:17:31;;;;;;;19.70;5.27;;;;;;;7.42;100.00;100151.31;5011792;28;20619;-87
2022/11/24 00:19:57;;;;;;;22.27;6.20;;;;;;;7.44;100.00;100163.53;5008755;28;20573;-88
2022/11/24 00:22:22;;;;;;;20.60;5.67;;;;;;;7.37;100.00;100160.03;5010341;28;20029;-86
2022/11/24 00:24:47;;;;;;;22.73;6.20;;;;;;;7.38;100.00;100168.94;4991511;28;20046;-89
2022/11/24 00:27:13;;;;;;;19.60;5.63;;;;;;;7.51;100.00;100174.31;5013127;28;20056;-87
2022/11/24 00:29:38;;;;;;;21.50;6.47;;;;;;;7.43;100.00;100163.75;5011170;28;20446;-86
2022/11/24 00:32:05;;;;;;;24.00;6.30;;;;;;;7.35;100.00;100172.88;5009400;28;20045;-88
2022/11/24 00:34:31;;;;;;;20.83;5.60;;;;;;;7.40;100.00;100174.97;5010892;28;20370;-87
2022/11/24 00:36:57;;;;;;;19.43;5.23;;;;;;;7.40;100.00;100177.66;4992459;28;20034;-87
2022/11/24 00:39:22;;;;;;;19.13;5.00;;;;;;;7.42;100.00;100175.56;5010609;28;20045;-85
2022/11/24 00:41:47;;;;;;;19.03;6.03;;;;;;;7.40;100.00;100166.88;5010683;28;20061;-85
2022/11/24 00:44:13;;;;;;;21.20;5.50;;;;;;;7.48;100.00;100174.75;5010630;28;20038;-88
2022/11/24 00:46:38;;;;;;;24.73;6.63;;;;;;;7.42;100.00;100170.19;5010561;28;20041;-89
2022/11/24 00:49:04;;;;;;;21.23;6.30;;;;;;;7.44;100.00;100179.72;5009842;28;20164;-86
2022/11/24 00:51:30;;;;;;;18.37;5.53;;;;;;;7.48;100.00;100174.75;5010273;28;20044;-87
2022/11/24 00:53:56;;;;;;;21.00;5.43;;;;;;;7.46;100.00;100178.69;4995654;28;20049;-88
2022/11/24 00:56:22;;;;;;;23.23;5.60;;;;;;;7.44;100.00;100184.28;5008292;28;20423;-88
2022/11/24 00:58:49;;;;;;;20.33;6.13;;;;;;;7.30;100.00;100164.56;5009863;28;20033;-91
2022/11/24 01:01:17;;;;;;;23.50;5.93;;;;;;;7.38;100.00;100177.84;5009746;28;20785;-87
2022/11/24 01:03:43;;;;;;;20.23;5.80;;;;;;;7.37;100.00;100175.34;5010038;28;20033;-89
2022/11/24 01:06:11;;;;;;;20.20;5.40;;;;;;;7.42;100.00;100186.34;5016148;28;20129;-88
2022/11/24 01:08:38;;;;;;;19.10;5.60;;;;;;;7.42;100.00;100199.81;5026651;28;20054;-87
2022/11/24 01:11:13;;;;;;;19.83;5.17;;;;;;;7.32;100.00;100199.44;5010162;28;20045;-88
2022/11/24 01:13:40;;;;;;;16.97;4.27;;;;;;;7.33;100.00;100204.59;5010976;28;20037;-88
2022/11/24 01:16:11;;;;;;;20.10;5.00;;;;;;;7.31;100.00;100200.44;5010141;28;20129;-88
2022/11/24 01:18:36;;;;;;;19.73;5.43;;;;;;;7.36;100.00;100203.38;5011047;28;21402;-86
2022/11/24 01:21:03;;;;;;;16.80;5.23;;;;;;;7.23;100.00;100190.69;5010898;28;20075;-86
2022/11/24 01:23:28;;;;;;;21.27;5.13;;;;;;;7.25;100.00;100202.94;5009440;28;20033;-87
2022/11/24 01:25:54;;;;;;;18.87;5.27;;;;;;;7.24;100.00;100211.22;5010099;28;20411;-87
2022/11/24 01:28:19;;;;;;;17.17;4.67;;;;;;;7.25;100.00;100205.63;5009931;28;20046;-87
2022/11/24 01:30:46;;;;;;;22.57;5.67;;;;;;;7.25;100.00;100199.41;4998821;28;20041;-88
2022/11/24 01:33:11;;;;;;;20.00;5.20;;;;;;;7.31;100.00;100211.22;5010176;28;20038;-88
2022/11/24 01:35:36;;;;;;;23.20;5.47;;;;;;;7.26;100.00;100204.59;5010012;28;20049;-89
2022/11/24 01:38:02;;;;;;;23.10;5.60;;;;;;;7.37;100.00;100210.38;5008579;28;20033;-90
2022/11/24 01:40:27;;;;;;;16.17;4.50;;;;;;;7.44;100.00;100208.56;5009525;28;20296;-88
2022/11/24 01:42:52;;;;;;;18.07;4.03;;;;;;;7.37;100.00;100218.47;5009819;28;20543;-90
2022/11/24 01:45:32;;;;;;;18.70;4.47;;;;;;;7.43;100.00;100220.34;5010723;28;20042;-88
2022/11/24 01:47:59;;;;;;;17.27;5.00;;;;;;;7.28;100.00;100220.56;5011182;28;20073;-88
2022/11/24 01:50:24;;;;;;;17.87;5.50;;;;;;;7.25;100.00;100219.09;5009981;28;20089;-89
2022/11/24 01:52:53;;;;;;;18.90;4.77;;;;;;;7.26;100.00;100231.53;5008003;28;20038;-84
2022/11/24 01:55:38;;;;;;;17.07;4.87;;;;;;;7.23;100.00;100229.22;5008831;28;20033;-87
2022/11/24 01:58:03;;;;;;;16.60;4.57;;;;;;;7.20;100.00;100232.34;5018862;28;20748;-87
2022/11/24 02:00:29;;;;;;;19.97;5.00;;;;;;;7.21;100.00;100234.00;5011134;28;20045;-86
2022/11/24 02:02:57;;;;;;;16.60;5.00;;;;;;;7.25;100.00;100239.84;4995791;28;20041;-88
2022/11/24 02:05:27;;;;;;;20.27;5.73;;;;;;;7.24;100.00;100238.16;5013420;28;20064;-88
2022/11/24 02:07:55;;;;;;;21.10;5.53;;;;;;;7.21;100.00;100228.63;5012752;28;20067;-89
2022/11/24 02:10:22;;;;;;;20.73;5.77;;;;;;;7.39;100.00;100246.06;5012774;28;20034;-88
2022/11/24 02:12:52;;;;;;;18.73;5.30;;;;;;;7.21;100.00;100244.78;5014561;28;20382;-88
2022/11/24 02:15:18;;;;;;;30.07;5.93;;;;;;;7.30;100.00;100253.50;5013399;28;20069;-88
2022/11/24 02:17:44;;;;;;;20.53;5.90;;;;;;;7.32;100.00;100245.25;5014898;28;20494;-89
2022/11/24 02:20:11;;;;;;;21.10;6.00;;;;;;;7.26;100.00;100247.72;5012314;28;20191;-88
2022/11/24 02:23:06;;;;;;;18.97;5.47;;;;;;;7.33;100.00;100254.97;5014262;28;20781;-88
2022/11/24 02:25:40;;;;;;;17.67;5.73;;;;;;;7.25;100.00;100254.13;5012202;28;20072;-85
2022/11/24 02:28:11;;;;;;;20.60;4.72;;;;;;;7.24;100.00;100271.31;5014461;28;20034;-88
2022/11/24 02:30:36;;;;;;;20.33;5.13;;;;;;;7.17;100.00;100248.94;5012579;28;20057;-86
2022/11/24 02:33:02;;;;;;;20.47;6.37;;;;;;;7.18;100.00;100266.75;5014122;28;20462;-87
2022/11/24 02:35:27;;;;;;;24.93;6.53;;;;;;;7.16;100.00;100258.03;5014020;28;20064;-87
2022/11/24 02:37:53;;;;;;;22.90;6.00;;;;;;;7.20;100.00;100269.25;4997290;28;20045;-87
2022/11/24 02:40:24;;;;;;;24.40;6.17;;;;;;;7.15;100.00;100263.63;5013522;28;20034;-87
2022/11/24 02:42:54;;;;;;;20.17;5.17;;;;;;;7.13;100.00;100269.22;5014335;28;20037;-87
2022/11/24 02:45:20;;;;;;;21.43;5.60;;;;;;;7.15;100.00;100253.69;5013470;28;20030;-87
2022/11/24 02:47:46;;;;;;;22.77;6.67;;;;;;;7.12;100.00;100262.19;5011449;28;20158;-86
2022/11/24 02:50:11;;;;;;;24.07;6.70;;;;;;;7.15;100.00;100271.72;5018308;28;20478;-87
2022/11/24 02:52:36;;;;;;;25.70;6.03;;;;;;;7.18;100.00;100272.16;5013323;28;20124;-87
2022/11/24 02:55:03;;;;;;;22.43;6.17;;;;;;;7.08;100.00;100263.63;5012641;28;20037;-86
2022/11/24 02:57:28;;;;;;;19.83;5.93;;;;;;;7.13;100.00;100263.84;5012419;28;20037;-87
2022/11/24 02:59:53;;;;;;;22.07;5.77;;;;;;;7.10;100.00;100265.06;5011559;28;20575;-88
2022/11/24 03:02:19;;;;;;;21.07;6.53;;;;;;;7.12;100.00;100264.88;5010904;28;20434;-88
2022/11/24 03:04:44;;;;;;;20.03;6.40;;;;;;;7.19;100.00;100272.97;5013533;28;20057;-87
2022/11/24 03:07:09;;;;;;;23.57;7.57;;;;;;;7.21;100.00;100270.91;5012120;28;20587;-87
2022/11/24 03:09:35;;;;;;;26.23;7.77;;;;;;;7.17;100.00;100270.47;5011889;28;20117;-90
2022/11/24 03:12:00;;;;;;;21.93;6.37;;;;;;;7.19;100.00;100273.78;5011969;28;20030;-89
2022/11/24 03:14:25;;;;;;;25.13;6.40;;;;;;;7.28;100.00;100282.53;5009637;28;20057;-88
2022/11/24 03:16:51;;;;;;;23.90;5.77;;;;;;;7.29;100.00;100277.97;5010318;28;20049;-86
2022/11/24 03:19:16;;;;;;;22.13;5.80;;;;;;;7.41;100.00;100285.25;5013322;28;20046;-86
2022/11/24 03:21:41;;;;;;;21.23;5.37;;;;;;;7.46;100.00;100281.94;5012324;28;20239;-89
2022/11/24 03:24:07;;;;;;;22.93;5.37;;;;;;;7.40;100.00;100283.59;5011917;28;20124;-89
2022/11/24 03:26:33;;;;;;;20.60;5.10;;;;;;;7.37;100.00;100289.41;5010702;28;20041;-89
2022/11/24 03:28:59;;;;;;;19.40;4.70;;;;;;;7.42;100.00;100278.00;5012722;28;20120;-89
2022/11/24 03:31:24;;;;;;;22.73;5.30;;;;;;;7.44;100.00;100281.31;5010691;28;20093;-88
2022/11/24 03:33:49;;;;;;;21.57;5.07;;;;;;;7.38;100.00;100268.66;5011253;28;20474;-90
2022/11/24 03:36:15;;;;;;;21.43;5.43;;;;;;;7.44;100.00;100284.03;5010070;28;20674;-90
2022/11/24 03:38:41;;;;;;;22.77;5.00;;;;;;;7.57;100.00;100289.41;5018251;28;20068;-88
2022/11/24 03:41:06;;;;;;;19.17;5.30;;;;;;;7.50;100.00;100274.28;5021675;28;20594;-89
2022/11/24 03:43:32;;;;;;;23.87;5.77;;;;;;;7.61;100.00;100292.53;5012978;28;20049;-87
2022/11/24 03:45:57;;;;;;;21.17;4.77;;;;;;;7.59;100.00;100290.03;5010409;28;20070;-90
2022/11/24 03:48:23;;;;;;;21.40;5.10;;;;;;;7.62;100.00;100298.78;5012705;28;20042;-90
2022/11/24 03:50:53;;;;;;;24.10;5.23;;;;;;;7.64;100.00;100296.69;5010655;28;20185;-90
2022/11/24 03:53:18;;;;;;;23.77;6.13;;;;;;;7.63;100.00;100292.31;5012172;28;20044;-87
2022/11/24 03:55:43;;;;;;;25.17;5.90;;;;;;;7.58;100.00;100280.28;4993321;28;20042;-87
2022/11/24 03:58:09;;;;;;;25.10;6.27;;;;;;;7.66;100.00;100290.06;4993908;28;20118;-92
2022/11/24 04:00:34;;;;;;;25.27;5.50;;;;;;;7.74;100.00;100302.50;4994265;28;20040;-87
2022/11/24 04:02:59;;;;;;;21.40;5.23;;;;;;;7.73;100.00;100296.28;5011384;28;21274;-89
2022/11/24 04:05:25;;;;;;;22.97;5.60;;;;;;;7.74;100.00;100294.44;5011319;28;20059;-88
2022/11/24 04:07:50;;;;;;;22.43;5.40;;;;;;;7.86;100.00;100313.50;5009679;28;21398;-88
2022/11/24 04:10:15;;;;;;;18.10;4.90;;;;;;;7.85;100.00;100309.97;5010532;28;20055;-89
2022/11/24 04:12:43;;;;;;;24.97;6.93;;;;;;;7.83;100.00;100309.34;5011590;28;20116;-87
2022/11/24 04:15:14;;;;;;;25.47;6.73;;;;;;;7.74;100.00;100291.72;5011812;28;20036;-88
2022/11/24 04:17:39;;;;;;;25.23;6.17;;;;;;;7.79;100.00;100310.78;5010959;28;20026;-88
2022/11/24 04:20:06;;;;;;;20.60;5.07;;;;;;;7.79;100.00;100305.41;5011548;28;20111;-90
2022/11/24 04:22:31;;;;;;;23.30;6.13;;;;;;;7.78;100.00;100306.47;4992424;28;20049;-88
2022/11/24 04:24:57;;;;;;;24.23;6.67;;;;;;;7.81;100.00;100324.91;4994167;28;20462;-88
2022/11/24 04:27:22;;;;;;;27.43;7.93;;;;;;;7.70;100.00;100301.28;5011390;28;20030;-88
2022/11/24 04:29:48;;;;;;;21.13;4.90;;;;;;;7.79;100.00;100329.66;5011300;28;20280;-90
2022/11/24 04:32:14;;;;;;;19.30;5.17;;;;;;;7.78;100.00;100334.25;5010612;28;20025;-92
2022/11/24 04:34:39;;;;;;;19.73;4.50;;;;;;;7.87;100.00;100334.88;5011216;28;20045;-92
2022/11/24 04:37:04;;;;;;;18.13;3.80;;;;;;;7.81;100.00;100367.25;4983888;28;20040;-89
2022/11/24 04:39:30;;;;;;;10.43;2.30;;;;;;;7.67;100.00;100347.50;5012419;28;20056;-88
2022/11/24 04:41:55;;;;;;;7.67;2.10;;;;;;;7.51;100.00;100368.41;5011594;28;20040;-90
2022/11/24 04:44:20;;;;;;;7.00;2.20;;;;;;;7.39;100.00;100375.44;5011677;28;20371;-90
2022/11/24 04:46:46;;;;;;;7.77;2.10;;;;;;;7.30;100.00;100372.06;5011477;28;20137;-87
2022/11/24 04:49:11;;;;;;;6.93;1.90;;;;;;;7.15;100.00;100364.13;5011913;28;20432;-90
2022/11/24 04:51:38;;;;;;;4.63;1.70;;;;;;;7.04;100.00;100360.16;5009819;28;20069;-90
2022/11/24 04:54:04;;;;;;;9.67;2.30;;;;;;;7.01;100.00;100370.53;5012038;28;20052;-88
2022/11/24 04:56:29;;;;;;;7.90;2.03;;;;;;;6.95;100.00;100379.38;5011310;28;20037;-88
2022/11/24 04:58:55;;;;;;;5.93;2.20;;;;;;;6.88;100.00;100376.66;5011192;28;20094;-87
2022/11/24 05:01:20;;;;;;;8.53;2.60;;;;;;;6.85;100.00;100374.38;5016627;28;20079;-87
2022/11/24 05:03:45;;;;;;;10.73;2.90;;;;;;;6.74;100.00;100373.06;5011297;28;20501;-88
2022/11/24 05:06:11;;;;;;;10.53;2.70;;;;;;;6.75;100.00;100380.13;5009466;28;20065;-86
2022/11/24 05:08:36;;;;;;;8.67;2.80;;;;;;;6.79;100.00;100380.56;5011698;28;20044;-86
2022/11/24 05:11:06;;;;;;;11.63;3.00;;;;;;;6.79;100.00;100378.69;5010590;28;20045;-85
2022/11/24 05:13:31;;;;;;;12.30;3.10;;;;;;;6.77;100.00;100383.44;5011848;28;20041;-86
2022/11/24 05:15:58;;;;;;;10.97;3.37;;;;;;;6.75;100.00;100382.81;5008872;28;20037;-86
2022/11/24 05:18:24;;;;;;;11.17;3.23;;;;;;;6.71;100.00;100376.97;5011237;28;20036;-87
2022/11/24 05:20:49;;;;;;;13.83;3.60;;;;;;;6.74;100.00;100394.59;5010709;28;20037;-84
2022/11/24 05:23:15;;;;;;;16.23;3.80;;;;;;;6.74;100.00;100394.59;5010342;28;20128;-86
2022/11/24 05:25:40;;;;;;;15.23;3.70;;;;;;;6.76;100.00;100408.72;5010551;28;20131;-84
2022/11/24 05:28:10;;;;;;;14.20;3.60;;;;;;;6.73;100.00;100398.31;5011129;28;20041;-84
2022/11/24 05:30:37;;;;;;;15.73;3.90;;;;;;;6.68;100.00;100392.72;5009253;28;20061;-85
2022/11/24 05:33:08;;;;;;;15.73;3.40;;;;;;;6.76;100.00;100409.53;5010830;28;20059;-85
2022/11/24 05:35:35;;;;;;;17.47;3.77;;;;;;;6.79;100.00;100405.63;5011058;28;20118;-85
2022/11/24 05:38:01;;;;;;;15.63;3.97;;;;;;;6.77;100.00;100407.66;5014537;28;20040;-85
2022/11/24 05:40:26;;;;;;;13.83;3.33;;;;;;;6.76;100.00;100414.91;5015185;28;20583;-84
2022/11/24 05:42:52;;;;;;;15.53;3.80;;;;;;;6.74;100.00;100408.88;5014788;28;20034;-85
2022/11/24 05:45:19;;;;;;;14.17;3.43;;;;;;;6.74;100.00;100408.88;5014749;28;20071;-86
2022/11/24 05:47:45;;;;;;;17.97;3.80;;;;;;;6.79;100.00;100426.34;5015065;28;20048;-86
2022/11/24 05:50:13;;;;;;;11.30;3.27;;;;;;;6.76;100.00;100423.00;5014745;28;20053;-85
2022/11/24 05:52:38;;;;;;;12.57;2.90;;;;;;;6.81;100.00;100432.34;5012804;28;20801;-85
2022/11/24 05:55:05;;;;;;;15.17;3.10;;;;;;;6.71;100.00;100425.44;5013726;28;20037;-85
2022/11/24 05:57:31;;;;;;;12.33;2.97;;;;;;;6.78;100.00;100440.81;5014551;28;20599;-84
2022/11/24 05:59:56;;;;;;;11.50;3.13;;;;;;;6.76;100.00;100441.84;5014826;28;20124;-84
2022/11/24 06:02:21;;;;;;;13.43;3.60;;;;;;;6.79;100.00;100450.56;5014135;28;20580;-85
2022/11/24 06:04:47;;;;;;;13.67;3.00;;;;;;;6.79;100.00;100448.69;5014940;28;20033;-86
2022/11/24 06:07:12;;;;;;;11.63;3.40;;;;;;;6.80;100.00;100461.16;5014427;28;20124;-86
2022/11/24 06:09:39;;;;;;;15.37;3.10;;;;;;;6.78;100.00;100460.50;5013050;28;20036;-87
2022/11/24 06:12:06;;;;;;;13.93;3.00;;;;;;;6.78;100.00;100462.38;5021789;28;20079;-85
2022/11/24 06:14:31;;;;;;;13.77;3.33;;;;;;;6.79;100.00;100467.56;5014006;28;20089;-86
2022/11/24 06:16:57;;;;;;;13.53;3.33;;;;;;;6.81;100.00;100462.78;5013902;28;20424;-86
2022/11/24 06:19:22;;;;;;;18.37;4.40;;;;;;;6.82;100.00;100467.16;5014259;28;20081;-86
2022/11/24 06:21:47;;;;;;;17.93;4.00;;;;;;;6.81;100.00;100465.47;5012736;28;20033;-86
2022/11/24 06:24:13;;;;;;;13.37;3.13;;;;;;;6.83;100.00;100476.91;5010681;28;20048;-87
2022/11/24 06:26:39;;;;;;;13.80;3.27;;;;;;;6.87;100.00;100483.56;5011601;28;20030;-88
2022/11/24 06:29:04;;;;;;;12.27;3.23;;;;;;;6.91;100.00;100490.22;4992993;28;20046;-87
2022/11/24 06:31:30;;;;;;;17.23;3.53;;;;;;;6.89;100.00;100489.56;5010090;28;20065;-87
2022/11/24 06:33:55;;;;;;;12.13;3.20;;;;;;;6.95;100.00;100501.44;5011626;28;20120;-87
2022/11/24 06:36:20;;;;;;;15.37;3.77;;;;;;;6.98;100.00;100509.13;5007847;28;20390;-87
2022/11/24 06:38:46;;;;;;;13.03;3.03;;;;;;;7.05;100.00;100510.00;5010124;28;20385;-85
2022/11/24 06:41:13;;;;;;;16.07;3.60;;;;;;;7.07;100.00;100515.19;5010650;28;20038;-87
2022/11/24 06:43:39;;;;;;;14.43;3.20;;;;;;;7.06;100.00;100522.44;5012573;28;20037;-87
2022/11/24 06:46:04;;;;;;;13.27;3.00;;;;;;;7.09;100.00;100522.03;5008563;28;20042;-88
2022/11/24 06:48:30;;;;;;;12.30;3.63;;;;;;;6.95;100.00;100509.53;5009218;28;20038;-86
2022/11/24 06:51:07;;;;;;;10.47;3.10;;;;;;;7.07;100.00;100534.03;5009180;28;20062;-87
2022/11/24 06:53:36;;;;;;;13.13;3.30;;;;;;;7.06;100.00;100548.56;5008818;28;20061;-87
2022/11/24 06:56:06;;;;;;;13.53;3.50;;;;;;;7.06;100.00;100556.63;5011202;28;20080;-87
2022/11/24 06:58:31;;;;;;;9.67;3.27;;;;;;;7.06;100.00;100564.72;5010335;28;20188;-88
2022/11/24 07:00:57;;;;;;;11.83;3.03;;;;;;;6.98;100.00;100567.56;5010267;28;20416;-89
2022/11/24 07:03:22;;;;;;;9.40;3.00;;;;;;;7.01;100.00;100578.75;5010425;28;20030;-86
2022/11/24 07:05:48;;;;;;;9.90;3.00;;;;;;;7.02;100.00;100574.22;5010339;28;20036;-88
2022/11/24 07:08:13;;;;;;;8.43;2.60;;;;;;;7.00;100.00;100581.66;5010009;28;20482;-87
2022/11/24 07:10:39;;;;;;;11.03;2.90;;;;;;;6.95;100.00;100594.88;5010536;28;20037;-88
2022/11/24 07:13:06;;;;;;;11.00;2.77;;;;;;;7.01;100.00;100599.47;5010194;28;20562;-86
2022/11/24 07:15:32;;;;;;;11.07;3.20;;;;;;;6.90;100.00;100598.97;5009121;28;20068;-87
2022/11/24 07:17:57;;;;;;;10.43;2.83;;;;;;;6.87;100.00;100596.66;5008040;28;20133;-86
2022/11/24 07:20:22;;;;;;;11.00;3.00;;;;;;;6.92;100.00;100614.94;5012340;28;20173;-86
2022/11/24 07:22:48;;;;;;;8.13;2.40;;;;;;;6.85;100.00;100620.25;5010367;28;20545;-86
2022/11/24 07:25:20;;;;;;;10.43;2.47;;;;;;;6.87;100.00;100631.69;5010680;28;20584;-87
2022/11/24 07:27:45;;;;;;;6.83;2.37;;;;;;;6.82;100.00;100630.59;5009423;28;20493;-87
2022/11/24 07:30:11;;;;;;;11.07;2.80;;;;;;;6.85;100.00;100640.97;5008774;28;20042;-86
2022/11/24 07:32:36;;;;;;;8.83;2.60;;;;;;;6.82;100.00;100638.69;5013043;28;20037;-85
2022/11/24 07:35:02;;;;;;;13.93;3.03;;;;;;;6.76;100.00;100634.91;5015653;28;20536;-90
2022/11/24 07:37:27;;;;;;;6.00;2.27;;;;;;;6.81;100.00;100642.38;4991476;28;20038;-90
2022/11/24 07:39:53;;;;;;;9.87;2.70;;;;;;;6.84;100.00;100653.63;5010068;28;20088;-90
2022/11/24 07:42:18;;;;;;;7.83;2.40;;;;;;;6.86;100.00;100656.94;5009736;28;20149;-90
2022/11/24 07:44:43;;;;;;;8.10;2.77;;;;;;;6.80;100.00;100660.41;5009805;28;20463;-92
2022/11/24 07:47:09;;;;;;;15.27;2.87;;;;;;;6.80;100.00;100660.41;5010232;28;20068;-89
2022/11/24 07:49:34;;;;;;;12.57;2.63;;;;;;;6.86;100.00;100659.63;5009389;28;20062;-90
2022/11/24 07:52:00;;;;;;;9.70;2.90;;;;;;;6.78;100.00;100667.03;5007669;28;20497;-91
2022/11/24 07:54:25;;;;;;;11.33;3.03;;;;;;;6.78;100.00;100670.53;5007285;28;20196;-91
2022/11/24 07:56:50;;;;;;;8.87;2.40;;;;;;;6.80;100.00;100671.19;5010919;28;20041;-87
2022/11/24 07:59:16;;;;;;;12.33;2.90;;;;;;;6.82;100.00;100677.22;5007204;28;20148;-88
2022/11/24 08:01:41;;;;;;;10.30;2.80;;;;;;;6.74;100.00;100677.31;5007263;28;20088;-87
2022/11/24 08:04:07;;;;;;;11.30;2.40;;;;;;;6.65;100.00;100673.06;5008977;28;20505;-87
2022/11/24 08:06:32;;;;;;;9.47;2.40;;;;;;;6.70;100.00;100684.13;5009768;28;20041;-89
2022/11/24 08:08:57;;;;;;;10.20;2.60;;;;;;;6.72;100.00;100682.09;5009979;28;20137;-88
2022/11/24 08:11:24;;;;;;;10.10;2.60;;;;;;;6.80;100.00;100692.72;5008241;28;20124;-87
2022/11/24 08:13:49;;;;;;;13.10;3.00;;;;;;;6.83;100.00;100697.72;5009914;28;20038;-87
2022/11/24 08:16:17;;;;;;;11.17;2.70;;;;;;;6.95;100.00;100703.47;5012021;28;20038;-84
2022/11/24 08:18:43;;;;;;;12.23;2.57;;;;;;;7.15;100.00;100700.94;5018271;28;20122;-83
2022/11/24 08:21:12;;;;;;;12.60;2.97;;;;;;;7.22;100.00;100715.31;5031609;28;20029;-83
2022/11/24 08:23:38;;;;;;;8.93;2.60;;;;;;;7.32;100.00;100708.78;5012551;28;20475;-83
2022/11/24 08:26:07;;;;;;;9.10;2.70;;;;;;;7.47;100.00;100720.31;5012144;28;20086;-83
2022/11/24 08:28:34;;;;;;;9.93;2.40;;;;;;;7.62;100.00;100717.53;5017223;28;20076;-83
2022/11/24 08:31:09;;;;;;;10.70;2.80;;;;;;;7.73;100.00;100722.38;5010409;28;20423;-84
2022/11/24 08:33:35;;;;;;;11.20;2.60;;;;;;;7.82;100.00;100736.56;5011383;28;20037;-84
2022/11/24 08:36:03;;;;;;;8.33;2.50;;;;;;;7.93;100.00;100740.59;5023048;28;20011;-89
2022/11/24 08:38:28;;;;;;;11.10;2.83;;;;;;;8.06;100.00;100747.91;5041034;28;20038;-86
2022/11/24 08:40:53;;;;;;;9.83;2.70;;;;;;;8.11;100.00;100746.28;5011593;28;20035;-86
2022/11/24 08:43:19;;;;;;;9.20;2.80;;;;;;;8.14;100.00;100750.47;5011706;28;20045;-87
2022/11/24 08:45:44;;;;;;;10.80;2.77;;;;;;;8.21;100.00;100751.31;5011469;28;20064;-91
2022/11/24 08:48:09;;;;;;;12.93;3.27;;;;;;;8.25;100.00;100754.47;5011006;28;20041;-87
2022/11/24 08:50:36;;;;;;;8.63;2.73;;;;;;;8.10;100.00;100755.44;5010901;28;20111;-87
2022/11/24 08:53:01;;;;;;;12.83;3.03;;;;;;;8.14;100.00;100766.66;5014428;28;20060;-84
2022/11/24 08:55:27;;;;;;;9.23;3.50;;;;;;;8.28;100.00;100772.97;5012842;28;20150;-87
2022/11/24 08:57:52;;;;;;;10.30;2.70;;;;;;;8.45;100.00;100770.81;5009961;28;20100;-85
2022/11/24 09:00:21;;;;;;;13.63;3.20;;;;;;;8.32;100.00;100766.13;5011394;28;20041;-85
2022/11/24 09:02:52;;;;;;;11.97;3.37;;;;;;;8.63;100.00;100774.88;5010911;28;20034;-86
2022/11/24 09:05:18;;;;;;;8.83;2.73;;;;;;;8.78;100.00;100778.25;5011269;28;20026;-85
2022/11/24 09:07:43;;;;;;;9.10;2.60;;;;;;;8.94;100.00;100786.00;5021580;28;20059;-85
2022/11/24 09:10:08;;;;;;;12.20;2.67;;;;;;;9.01;100.00;100788.72;5020245;28;20042;-86
2022/11/24 09:12:34;;;;;;;11.47;2.60;;;;;;;9.17;99.50;100792.94;5019396;28;20068;-85
2022/11/24 09:14:59;;;;;;;9.50;2.43;;;;;;;9.23;97.66;100797.53;5028146;28;21428;-85
2022/11/24 09:17:24;;;;;;;8.00;2.50;;;;;;;9.26;96.87;100799.81;5023601;28;20478;-85
2022/11/24 09:19:50;;;;;;;9.87;2.70;;;;;;;9.46;97.60;100807.13;5047691;28;20377;-88
2022/11/24 09:22:18;;;;;;;8.77;2.53;;;;;;;9.53;94.73;100807.16;5036697;28;20108;-87
2022/11/24 09:24:43;;;;;;;11.17;2.90;;;;;;;9.70;95.27;100813.00;5010045;28;20140;-88
2022/11/24 09:27:08;;;;;;;10.10;2.90;;;;;;;9.77;94.90;100811.94;5030316;28;20112;-84
2022/11/24 09:29:33;;;;;;;12.40;3.13;;;;;;;9.60;94.57;100799.84;5032917;28;20449;-87
2022/11/24 09:31:59;;;;;;;11.60;3.03;;;;;;;9.83;91.33;100820.28;5012456;28;20060;-87
2022/11/24 09:34:24;;;;;;;14.60;3.37;;;;;;;9.73;92.97;100823.41;5014553;28;20536;-88
2022/11/24 09:36:50;;;;;;;10.70;2.90;;;;;;;9.98;93.14;100818.19;5026934;28;20477;-88
2022/11/24 09:39:15;;;;;;;12.73;3.00;;;;;;;9.93;91.78;100829.66;5029286;28;20490;-86
2022/11/24 09:42:08;;;;;;;12.07;2.90;;;;;;;10.33;93.50;100838.81;5032733;28;20060;-87
2022/11/24 09:44:46;;;;;;;10.07;3.20;;;;;;;10.22;91.85;100838.38;5028536;28;20045;-88
2022/11/24 09:47:44;;;;;;;12.53;3.10;;;;;;;10.33;90.72;100841.50;5007329;28;20528;-88
2022/11/24 09:50:17;;;;;;;12.30;3.50;;;;;;;10.27;90.13;100849.44;5006934;28;20513;-87
2022/11/24 09:52:49;;;;;;;10.97;2.97;;;;;;;10.03;90.01;100833.84;5006049;28;20618;-89
2022/11/24 09:55:25;;;;;;;10.80;3.20;;;;;;;10.27;91.19;100854.84;5006482;28;20033;-87
2022/11/24 09:58:06;;;;;;;12.17;3.20;;;;;;;10.49;88.44;100859.25;5005561;28;20034;-89
2022/11/24 10:00:32;;;;;;;12.80;3.20;;;;;;;10.58;88.58;100863.38;5008375;28;20072;-89
2022/11/24 10:02:58;;;;;;;12.43;3.50;;;;;;;10.51;87.96;100868.78;5007971;28;20125;-88
2022/11/24 10:05:25;;;;;;;10.50;3.20;;;;;;;10.72;87.21;100875.84;5007440;28;20035;-88
2022/11/24 10:08:19;;;;;;;10.87;3.33;;;;;;;10.95;88.31;100878.09;5006547;28;20533;-87
2022/11/24 10:10:58;;;;;;;11.63;3.40;;;;;;;10.92;86.44;100881.22;5010069;28;21457;-88
2022/11/24 10:13:39;;;;;;;15.20;3.67;;;;;;;10.75;86.92;100874.59;5010215;28;20099;-85
2022/11/24 10:16:37;;;;;;;14.53;3.37;;;;;;;10.92;87.38;100886.66;5010337;28;20034;-89
2022/11/24 10:19:24;;;;;;;16.37;3.60;;;;;;;10.97;86.97;100886.84;5011387;28;20523;-88
2022/11/24 10:22:26;;;;;;;17.73;3.73;;;;;;;11.11;86.58;100892.19;5009882;28;20045;-87
2022/11/24 10:25:12;;;;;;;14.07;3.17;;;;;;;11.14;86.88;100894.50;5014095;28;20044;-86
2022/11/24 10:27:45;;;;;;;14.67;3.70;;;;;;;11.14;85.37;100887.19;5013295;28;20084;-88
2022/11/24 10:30:14;;;;;;;13.07;3.10;;;;;;;11.18;84.35;100895.75;5011782;28;20034;-87
2022/11/24 10:32:44;;;;;;;13.07;3.33;;;;;;;11.23;85.64;100904.06;5014587;28;20029;-88
2022/11/24 10:35:39;;;;;;;15.70;3.40;;;;;;;11.36;85.45;100892.31;5014803;28;20041;-88
2022/11/24 10:38:20;;;;;;;14.32;3.33;;;;;;;11.49;84.66;100913.13;5001706;28;20243;-87
2022/11/24 10:40:52;;;;;;;14.33;3.57;;;;;;;11.29;84.35;100897.78;5010496;28;20774;-87
2022/11/24 10:43:18;;;;;;;15.00;3.60;;;;;;;11.22;84.44;100902.41;5011779;28;20664;-88
2022/11/24 10:45:44;;;;;;;14.67;3.27;;;;;;;11.47;83.44;100920.66;5013349;28;20034;-88
2022/11/24 10:48:24;;;;;;;14.27;3.30;;;;;;;11.21;83.70;100895.31;5012338;28;20038;-88
2022/11/24 10:50:53;;;;;;;12.20;3.20;;;;;;;11.48;82.18;100915.00;5013437;28;20057;-89
2022/11/24 10:53:25;;;;;;;14.90;3.20;;;;;;;11.34;84.30;100912.56;5012762;28;20449;-87
2022/11/24 10:55:54;;;;;;;16.73;3.57;;;;;;;11.37;85.81;100915.69;5011848;28;20030;-86
2022/11/24 10:58:25;;;;;;;11.27;3.43;;;;;;;11.49;83.89;100915.81;5013886;28;20277;-89
2022/11/24 11:00:51;;;;;;;16.57;3.37;;;;;;;11.64;83.99;100916.41;5012707;28;20034;-87
2022/11/24 11:03:19;;;;;;;11.67;3.03;;;;;;;11.65;82.59;100911.78;5008693;28;20717;-86
2022/11/24 11:05:54;;;;;;;15.73;3.27;;;;;;;11.77;83.08;100914.66;5011176;28;20029;-88
2022/11/24 11:08:24;;;;;;;13.70;3.20;;;;;;;11.91;80.30;100913.53;5014696;28;20160;-89
2022/11/24 11:11:16;;;;;;;14.60;3.50;;;;;;;12.24;81.54;100912.47;5012994;28;20030;-90
2022/11/24 11:13:54;;;;;;;14.60;3.27;;;;;;;12.07;79.96;100908.63;5013378;28;20175;-88
2022/11/24 11:16:32;;;;;;;11.87;3.57;;;;;;;11.81;80.64;100907.72;5013529;28;20030;-89
2022/11/24 11:19:00;;;;;;;16.27;3.70;;;;;;;11.39;80.18;100907.34;5011415;28;20030;-86
2022/11/24 11:21:45;;;;;;;14.97;3.40;;;;;;;11.24;83.77;100900.28;4996617;28;20025;-87